Time;durP1;ratioP1;P1;durP2;ratioP2;P2;SDS_P1;SDS_P2;PMS_P1;PMS_P2;Temp;Humidity;BMP_temperature;BMP_pressure;BME280_temperature;BME280_humidity;BME280_pressure;Samples;Min_cycle;Max_cycle;Signal;HPM_P1;HPM_P2
2022/10/03 00:00:19;;;;;;;1999.90;999.90;;;14.80;99.90;;;;;;5034191;28;20056;-78
2022/10/03 00:03:09;;;;;;;1999.90;999.90;;;14.80;99.90;;;;;;5062148;28;20061;-79
2022/10/03 00:05:54;;;;;;;1999.90;999.90;;;14.80;99.90;;;;;;5068284;28;20052;-78
2022/10/03 00:09:07;;;;;;;1999.90;999.90;;;14.80;99.90;;;;;;5068502;28;20067;-78
2022/10/03 00:12:01;;;;;;;1999.90;999.90;;;14.80;99.90;;;;;;5049625;28;20052;-81
2022/10/03 00:15:04;;;;;;;1999.90;999.90;;;14.80;99.90;;;;;;5057227;28;20056;-79
2022/10/03 00:17:38;;;;;;;1999.90;999.90;;;14.80;99.90;;;;;;5039198;28;20048;-79
2022/10/03 00:20:18;;;;;;;1999.90;999.90;;;14.70;99.90;;;;;;5056551;28;20041;-80
2022/10/03 00:23:26;;;;;;;1999.90;999.90;;;14.80;99.90;;;;;;5045127;28;20481;-79
2022/10/03 00:25:59;;;;;;;1999.90;999.90;;;14.80;99.90;;;;;;5007383;28;20454;-78
2022/10/03 00:28:58;;;;;;;1999.90;999.90;;;14.80;99.90;;;;;;5065982;28;20060;-81
2022/10/03 00:31:35;;;;;;;1999.90;999.90;;;14.70;99.90;;;;;;5079653;28;20052;-79
2022/10/03 00:34:14;;;;;;;1999.90;999.90;;;14.80;99.90;;;;;;5061301;28;20266;-80
2022/10/03 00:36:52;;;;;;;1999.90;999.90;;;14.70;99.90;;;;;;5072798;28;20051;-79
2022/10/03 00:39:35;;;;;;;1999.90;999.90;;;14.70;99.90;;;;;;5061464;28;20489;-78
2022/10/03 00:42:23;;;;;;;1999.90;999.90;;;14.80;99.90;;;;;;5068379;28;20048;-79
2022/10/03 00:45:20;;;;;;;1999.90;999.90;;;14.70;99.90;;;;;;5060734;28;20690;-78
2022/10/03 00:48:02;;;;;;;1999.90;999.90;;;14.70;99.90;;;;;;5068091;28;20051;-79
2022/10/03 00:50:37;;;;;;;1999.90;999.90;;;14.80;99.90;;;;;;5078135;28;20089;-80
2022/10/03 00:53:09;;;;;;;1999.90;999.90;;;14.70;99.90;;;;;;5056818;28;20049;-80
2022/10/03 00:55:51;;;;;;;1999.90;999.90;;;14.70;99.90;;;;;;5070582;28;20178;-79
2022/10/03 00:58:42;;;;;;;1999.90;999.90;;;14.70;99.90;;;;;;5060420;28;20051;-85
2022/10/03 01:01:22;;;;;;;1999.90;999.90;;;14.60;99.90;;;;;;5055272;28;20067;-80
2022/10/03 01:04:07;;;;;;;1999.90;999.90;;;14.70;99.90;;;;;;5059052;28;20049;-81
2022/10/03 01:06:36;;;;;;;1999.90;999.90;;;14.70;99.90;;;;;;5058116;28;20588;-79
2022/10/03 01:09:25;;;;;;;1999.90;999.90;;;15.00;99.90;;;;;;5049225;28;20036;-79
2022/10/03 01:12:00;;;;;;;1999.90;999.90;;;14.80;99.90;;;;;;5020528;28;20044;-79
2022/10/03 01:14:44;;;;;;;1999.90;999.90;;;14.80;99.90;;;;;;5062558;28;20040;-82
2022/10/03 01:17:28;;;;;;;1999.90;999.90;;;14.80;99.90;;;;;;5073017;28;20128;-79
2022/10/03 01:20:21;;;;;;;1999.90;999.90;;;14.90;99.90;;;;;;5057424;28;20040;-79
2022/10/03 01:22:55;;;;;;;1999.90;999.90;;;15.00;99.90;;;;;;5048388;28;20056;-82
2022/10/03 01:25:41;;;;;;;1999.90;999.90;;;15.00;99.90;;;;;;5064717;28;20533;-80
2022/10/03 01:31:16;;;;;;;1999.90;999.90;;;15.00;99.90;;;;;;5064077;28;21093;-79
2022/10/03 01:33:52;;;;;;;1999.90;999.90;;;15.10;99.90;;;;;;5067533;28;20041;-80
2022/10/03 01:36:27;;;;;;;1999.90;999.90;;;15.10;99.90;;;;;;5072059;28;20412;-83
2022/10/03 01:39:37;;;;;;;1999.90;999.90;;;15.10;99.90;;;;;;5034191;28;20127;-81
2022/10/03 01:42:28;;;;;;;1999.90;999.90;;;15.10;99.90;;;;;;5049302;28;20409;-81
2022/10/03 01:45:25;;;;;;;1999.90;999.90;;;14.90;99.90;;;;;;5051651;28;20330;-82
2022/10/03 01:48:07;;;;;;;1999.90;999.90;;;14.90;99.90;;;;;;5051333;28;20092;-81
2022/10/03 01:50:45;;;;;;;1999.90;999.90;;;14.90;99.90;;;;;;5050826;28;20045;-81
2022/10/03 01:53:27;;;;;;;1999.90;999.90;;;14.80;99.90;;;;;;5033284;28;20049;-81
2022/10/03 01:56:38;;;;;;;1999.90;999.90;;;14.80;99.90;;;;;;5051384;28;20053;-81
2022/10/03 01:59:30;;;;;;;1999.90;999.90;;;14.80;99.90;;;;;;5049410;28;20443;-81
2022/10/03 02:02:38;;;;;;;1999.90;999.90;;;14.90;99.90;;;;;;5051262;28;20140;-84
2022/10/03 02:05:21;;;;;;;1999.90;999.90;;;15.00;99.90;;;;;;5008989;28;20136;-81
2022/10/03 02:07:53;;;;;;;1999.90;999.90;;;15.10;99.90;;;;;;5066228;28;20049;-82
2022/10/03 02:10:26;;;;;;;1999.90;999.90;;;15.20;99.90;;;;;;5035443;28;20123;-84
2022/10/03 02:13:15;;;;;;;1999.90;999.90;;;15.20;99.90;;;;;;5054877;28;20045;-82
2022/10/03 02:16:04;;;;;;;1999.90;999.90;;;15.30;99.90;;;;;;5025930;28;20053;-82
2022/10/03 02:18:50;;;;;;;1999.90;999.90;;;15.20;99.90;;;;;;5026334;28;20397;-81
2022/10/03 02:21:47;;;;;;;1999.90;999.90;;;15.20;99.90;;;;;;5050689;28;20106;-84
2022/10/03 02:24:18;;;;;;;1999.90;999.90;;;15.20;99.90;;;;;;5037036;28;20052;-80
2022/10/03 02:27:14;;;;;;;1999.90;999.90;;;15.10;99.90;;;;;;5053637;28;20327;-80
2022/10/03 02:30:00;;;;;;;1999.90;999.90;;;15.00;99.90;;;;;;5054048;28;20135;-80
2022/10/03 02:32:47;;;;;;;1999.90;999.90;;;15.00;99.90;;;;;;5054241;28;20052;-81
2022/10/03 02:35:23;;;;;;;1999.90;999.90;;;14.90;99.90;;;;;;5054566;28;20045;-80
2022/10/03 02:38:07;;;;;;;1999.90;999.90;;;14.90;99.90;;;;;;5069127;28;20370;-81
2022/10/03 02:40:48;;;;;;;1999.90;999.90;;;14.90;99.90;;;;;;5054191;28;20128;-82
2022/10/03 02:43:41;;;;;;;1999.90;999.90;;;15.10;99.90;;;;;;5053371;28;20056;-82
2022/10/03 02:46:30;;;;;;;1999.90;999.90;;;15.10;99.90;;;;;;5053823;28;20057;-82
2022/10/03 02:49:14;;;;;;;1999.90;999.90;;;15.10;99.90;;;;;;5052767;28;20067;-82
2022/10/03 02:52:06;;;;;;;1999.90;999.90;;;15.20;99.90;;;;;;5035528;28;20064;-82
2022/10/03 02:54:53;;;;;;;1999.90;999.90;;;15.20;99.90;;;;;;5053425;28;20053;-82
2022/10/03 02:57:22;;;;;;;1999.90;999.90;;;15.20;99.90;;;;;;5053031;28;20052;-80
2022/10/03 02:59:51;;;;;;;1999.90;999.90;;;15.40;99.90;;;;;;5052969;28;20049;-81
2022/10/03 03:02:31;;;;;;;1999.90;999.90;;;15.40;99.90;;;;;;5069626;28;20049;-81
2022/10/03 03:05:12;;;;;;;1999.90;999.90;;;15.40;99.90;;;;;;5070074;28;20052;-81
2022/10/03 03:07:59;;;;;;;1999.90;999.90;;;15.50;99.90;;;;;;5069142;28;20057;-81
2022/10/03 03:11:03;;;;;;;1999.90;999.90;;;15.50;99.90;;;;;;5068230;28;20048;-81
2022/10/03 03:13:50;;;;;;;1999.90;999.90;;;15.60;99.90;;;;;;5053338;28;20037;-81
2022/10/03 03:16:58;;;;;;;1999.90;999.90;;;15.50;99.90;;;;;;5054288;28;20183;-82
2022/10/03 03:19:39;;;;;;;1999.90;999.90;;;15.60;99.90;;;;;;5049952;28;20504;-83
2022/10/03 03:22:28;;;;;;;1999.90;999.90;;;15.60;99.90;;;;;;5054209;28;20037;-81
2022/10/03 03:25:18;;;;;;;1999.90;999.90;;;15.60;99.90;;;;;;5053142;28;20045;-82
2022/10/03 03:28:15;;;;;;;1999.90;999.90;;;15.60;99.90;;;;;;5068703;28;20053;-81
2022/10/03 03:30:44;;;;;;;;;;;15.70;99.90;;;;;;5053299;28;20056;-81
2022/10/03 03:33:37;;;;;;;1999.90;999.90;;;15.70;99.90;;;;;;5053033;28;19921;-81
2022/10/03 03:36:40;;;;;;;1999.90;999.90;;;15.60;99.90;;;;;;5053305;28;20060;-78
2022/10/03 03:39:24;;;;;;;1999.90;999.90;;;15.70;99.90;;;;;;5034670;28;20056;-83
2022/10/03 03:42:41;;;;;;;1999.90;999.90;;;15.70;99.90;;;;;;5052199;28;20127;-81
2022/10/03 03:45:39;;;;;;;1999.90;999.90;;;15.80;99.90;;;;;;5029962;28;20135;-81
2022/10/03 03:48:05;;;;;;;1999.90;999.90;;;15.70;99.90;;;;;;5013877;28;20056;-81
2022/10/03 03:51:10;;;;;;;1999.90;999.90;;;15.70;99.90;;;;;;5045666;28;20057;-81
2022/10/03 03:53:55;;;;;;;1999.90;999.90;;;15.70;99.90;;;;;;5052171;28;20175;-85
2022/10/03 03:56:47;;;;;;;1999.90;999.90;;;15.70;99.90;;;;;;5034315;28;20057;-81
2022/10/03 03:59:43;;;;;;;1999.90;999.90;;;16.10;99.90;;;;;;5052022;28;20088;-84
2022/10/03 04:02:16;;;;;;;1999.90;999.90;;;15.80;99.90;;;;;;5083678;28;20092;-80
2022/10/03 04:05:11;;;;;;;1999.90;999.90;;;15.70;99.90;;;;;;5050898;28;20045;-84
2022/10/03 04:07:49;;;;;;;1999.90;999.90;;;15.80;99.90;;;;;;5025404;28;20386;-82
2022/10/03 04:10:26;;;;;;;1999.90;999.90;;;17.10;99.90;;;;;;5052149;28;20061;-84
2022/10/03 04:13:18;;;;;;;1999.90;999.90;;;15.70;99.90;;;;;;5034350;28;20052;-82
2022/10/03 04:16:08;;;;;;;1999.90;999.90;;;15.70;99.90;;;;;;5049099;28;20072;-81
2022/10/03 04:18:57;;;;;;;1999.90;999.90;;;15.70;99.90;;;;;;5051221;28;20367;-81
2022/10/03 04:21:22;;;;;;;1999.90;999.90;;;15.60;99.90;;;;;;5051876;28;20513;-82
2022/10/03 04:24:06;;;;;;;1999.90;999.90;;;15.50;99.90;;;;;;5068389;28;20067;-81
2022/10/03 04:26:47;;;;;;;1999.90;999.90;;;15.50;99.90;;;;;;5049832;28;20057;-82
2022/10/03 04:29:37;;;;;;;1999.90;999.90;;;15.40;99.90;;;;;;5066923;28;20049;-81
2022/10/03 04:32:21;;;;;;;1999.90;999.90;;;15.30;99.90;;;;;;5051099;28;20119;-79
2022/10/03 04:35:08;;;;;;;1999.90;999.90;;;15.30;99.90;;;;;;5050406;28;20049;-79
2022/10/03 04:37:48;;;;;;;1999.90;999.90;;;15.20;99.90;;;;;;5067831;28;20048;-80
2022/10/03 04:40:32;;;;;;;1999.90;999.90;;;15.10;99.90;;;;;;5068070;28;20436;-80
2022/10/03 04:43:18;;;;;;;1999.90;999.90;;;15.10;99.90;;;;;;5067047;28;20049;-80
2022/10/03 04:45:58;;;;;;;1999.90;999.90;;;15.10;99.90;;;;;;5051833;28;20053;-80
2022/10/03 04:48:35;;;;;;;1999.90;999.90;;;15.00;99.90;;;;;;5034664;28;20041;-80
2022/10/03 04:51:35;;;;;;;1999.90;999.90;;;14.90;99.90;;;;;;5067517;28;20077;-80
2022/10/03 04:54:09;;;;;;;1999.90;999.90;;;14.90;99.90;;;;;;5068259;28;20653;-82
2022/10/03 04:56:42;;;;;;;1999.90;999.90;;;14.90;99.90;;;;;;5051334;28;20128;-80
2022/10/03 04:59:47;;;;;;;1999.90;999.90;;;14.90;99.90;;;;;;5050884;28;20056;-82
2022/10/03 05:02:13;;;;;;;1999.90;999.90;;;14.70;99.90;;;;;;5052511;28;20040;-80
2022/10/03 05:05:18;;;;;;;1999.90;999.90;;;15.00;99.90;;;;;;5052400;28;20509;-80
2022/10/03 05:07:52;;;;;;;1999.90;999.90;;;14.70;99.90;;;;;;5067441;28;20447;-81
2022/10/03 05:10:45;;;;;;;1999.90;999.90;;;14.80;99.90;;;;;;5033608;28;20060;-84
2022/10/03 05:13:15;;;;;;;1999.90;999.90;;;14.70;99.90;;;;;;5052143;28;20049;-80
2022/10/03 05:16:22;;;;;;;1999.90;999.90;;;14.70;99.90;;;;;;5034737;28;20052;-81
2022/10/03 05:18:56;;;;;;;1999.90;999.90;;;14.70;99.90;;;;;;5033653;28;20049;-80
2022/10/03 05:21:38;;;;;;;1999.90;999.90;;;14.60;99.90;;;;;;5051715;28;20045;-80
2022/10/03 05:24:19;;;;;;;1999.90;999.90;;;14.60;99.90;;;;;;5051967;28;20489;-81
2022/10/03 05:27:02;;;;;;;1999.90;999.90;;;14.80;99.90;;;;;;5050865;28;20052;-80
2022/10/03 05:29:30;;;;;;;1999.90;999.90;;;14.90;99.90;;;;;;5051399;28;20084;-80
2022/10/03 05:32:33;;;;;;;1999.90;999.90;;;15.00;99.90;;;;;;5051373;28;20056;-82
2022/10/03 05:35:17;;;;;;;1999.90;999.90;;;14.90;99.90;;;;;;5067770;28;20041;-83
2022/10/03 05:37:43;;;;;;;1999.90;999.90;;;14.90;99.90;;;;;;5066491;28;20045;-81
2022/10/03 05:40:25;;;;;;;1999.90;999.90;;;14.80;99.90;;;;;;5067019;28;20370;-82
2022/10/03 05:43:01;;;;;;;1999.90;999.90;;;14.70;99.90;;;;;;5034458;28;20076;-82
2022/10/03 05:45:57;;;;;;;1999.90;999.90;;;14.60;99.90;;;;;;5038465;28;20088;-82
2022/10/03 05:49:02;;;;;;;1999.90;999.90;;;14.60;99.90;;;;;;5070749;28;20049;-82
2022/10/03 05:51:43;;;;;;;1999.90;999.90;;;14.50;99.90;;;;;;5071105;28;20053;-82
2022/10/03 05:54:44;;;;;;;1999.90;999.90;;;14.60;99.90;;;;;;5071749;28;20423;-82
2022/10/03 05:57:16;;;;;;;1999.90;999.90;;;14.50;99.90;;;;;;5071306;28;20052;-82
2022/10/03 06:00:18;;;;;;;1999.90;999.90;;;14.50;99.90;;;;;;5071759;28;20053;-82
2022/10/03 06:02:53;;;;;;;1999.90;999.90;;;14.50;99.90;;;;;;5017366;28;20096;-82
2022/10/03 06:06:16;;;;;;;1999.90;999.90;;;14.50;99.90;;;;;;5035384;28;20405;-82
2022/10/03 06:09:20;;;;;;;1999.90;999.90;;;14.50;99.90;;;;;;5017437;28;20553;-82
2022/10/03 06:11:54;;;;;;;1999.90;999.90;;;14.60;99.90;;;;;;5014299;28;20117;-83
2022/10/03 06:14:44;;;;;;;1999.90;999.90;;;14.50;99.90;;;;;;5015132;28;20079;-83
2022/10/03 06:17:27;;;;;;;1999.90;999.90;;;14.60;99.90;;;;;;5048172;28;20056;-83
2022/10/03 06:20:30;;;;;;;1999.90;999.90;;;14.50;99.90;;;;;;5014590;28;20046;-83
2022/10/03 06:23:14;;;;;;;1999.90;999.90;;;14.70;99.90;;;;;;5047759;28;20110;-83
2022/10/03 06:26:12;;;;;;;1999.90;999.90;;;14.60;99.90;;;;;;5048306;28;20050;-83
2022/10/03 06:29:08;;;;;;;1999.90;999.90;;;14.70;99.90;;;;;;5014420;28;20096;-83
2022/10/03 06:32:04;;;;;;;1999.90;999.90;;;14.70;99.90;;;;;;5014298;28;20099;-83
2022/10/03 06:35:08;;;;;;;1999.90;999.90;;;15.80;99.90;;;;;;5048196;28;20046;-83
2022/10/03 06:38:21;;;;;;;1999.90;999.90;;;14.80;99.90;;;;;;4997608;28;20054;-83
2022/10/03 06:41:05;;;;;;;1999.90;999.90;;;15.00;99.90;;;;;;5012115;28;20050;-83
2022/10/03 06:43:34;;;;;;;1999.90;999.90;;;15.10;99.90;;;;;;5030721;28;20516;-83
2022/10/03 06:46:12;;;;;;;1999.90;999.90;;;15.10;99.90;;;;;;5047049;28;20058;-83
2022/10/03 06:48:47;;;;;;;1999.90;999.90;;;15.10;99.90;;;;;;5014194;28;20053;-83
2022/10/03 06:51:31;;;;;;;1999.90;999.90;;;15.30;99.90;;;;;;5014230;28;20045;-83
2022/10/03 06:54:07;;;;;;;1999.90;999.90;;;15.40;99.90;;;;;;5030293;28;20054;-83
2022/10/03 06:57:01;;;;;;;1999.90;999.90;;;15.50;99.90;;;;;;5014025;28;20053;-83
2022/10/03 06:59:48;;;;;;;1999.90;999.90;;;15.50;99.90;;;;;;5047345;28;20046;-83
2022/10/03 07:02:38;;;;;;;1999.90;999.90;;;15.60;99.90;;;;;;5014438;28;20060;-83
2022/10/03 07:05:22;;;;;;;1999.90;999.90;;;15.50;99.90;;;;;;5014167;28;20060;-83
2022/10/03 07:08:04;;;;;;;1999.90;999.90;;;15.70;99.90;;;;;;5014531;28;20068;-83
2022/10/03 07:10:39;;;;;;;1999.90;999.90;;;15.60;99.90;;;;;;5015153;28;20468;-82
2022/10/03 07:13:17;;;;;;;1999.90;999.90;;;15.70;99.90;;;;;;5016075;28;20129;-83
2022/10/03 07:16:23;;;;;;;1999.90;999.90;;;15.80;99.90;;;;;;5018852;28;20049;-83
2022/10/03 07:19:22;;;;;;;1999.90;999.90;;;16.00;99.90;;;;;;5017887;28;20773;-82
2022/10/03 07:22:07;;;;;;;;;;;16.00;99.90;;;;;;5031728;28;20058;-83
2022/10/03 07:24:57;;;;;;;1999.90;999.90;;;16.20;99.90;;;;;;5047546;28;19968;-83
2022/10/03 07:27:54;;;;;;;1999.90;999.90;;;16.20;99.90;;;;;;5030334;28;20085;-83
2022/10/03 07:30:22;;;;;;;1999.90;999.90;;;16.30;99.90;;;;;;5030763;28;20042;-83
2022/10/03 07:33:25;;;;;;;1999.90;999.90;;;16.40;99.90;;;;;;5031040;28;20061;-83
2022/10/03 07:39:47;;;;;;;1999.90;999.90;;;16.60;99.90;;;;;;5030135;28;20057;-84
2022/10/03 07:42:27;;;;;;;1999.90;999.90;;;16.60;99.90;;;;;;4984692;28;20592;-83
2022/10/03 07:45:03;;;;;;;1999.90;999.90;;;16.70;99.90;;;;;;5014044;28;20076;-83
2022/10/03 07:47:57;;;;;;;1999.90;999.90;;;16.80;99.90;;;;;;5013770;28;20439;-84
2022/10/03 07:50:49;;;;;;;1999.90;999.90;;;16.90;99.90;;;;;;5013377;28;20358;-83
2022/10/03 07:53:24;;;;;;;1999.90;999.90;;;17.60;99.90;;;;;;5030181;28;20072;-83
2022/10/03 07:56:11;;;;;;;1999.90;999.90;;;19.50;99.90;;;;;;5013453;28;20059;-84
2022/10/03 07:58:46;;;;;;;1999.90;999.90;;;20.80;99.90;;;;;;5012750;28;20034;-83
2022/10/03 08:01:24;;;;;;;1999.90;999.90;;;21.70;99.90;;;;;;5029768;28;20498;-83
2022/10/03 08:04:28;;;;;;;1999.90;999.90;;;22.40;99.90;;;;;;5013368;28;20058;-84
2022/10/03 08:07:49;;;;;;;1999.90;999.90;;;23.30;99.90;;;;;;4996849;28;20042;-84
2022/10/03 08:10:38;;;;;;;;;;;23.50;99.90;;;;;;4990289;28;20085;-84
2022/10/03 08:13:07;;;;;;;1999.90;999.90;;;24.00;99.90;;;;;;5045408;28;20374;-84
2022/10/03 08:15:45;;;;;;;1999.90;999.90;;;23.60;99.90;;;;;;5012478;28;20490;-84
2022/10/03 08:18:26;;;;;;;1999.90;999.90;;;23.90;99.90;;;;;;4996366;28;20053;-84
2022/10/03 08:21:00;;;;;;;1999.90;999.90;;;24.00;99.90;;;;;;4996638;28;20139;-84
2022/10/03 08:23:35;;;;;;;1999.90;999.90;;;24.60;99.90;;;;;;5012467;28;20054;-84
2022/10/03 08:26:39;;;;;;;1999.90;999.90;;;25.40;99.90;;;;;;5012688;28;20133;-85
2022/10/03 08:29:14;;;;;;;1999.90;999.90;;;25.20;99.90;;;;;;5012612;28;20503;-84
2022/10/03 08:32:07;;;;;;;1999.90;999.90;;;25.40;99.90;;;;;;5012520;28;20053;-84
2022/10/03 08:34:59;;;;;;;1999.90;999.90;;;26.00;99.90;;;;;;4996156;28;20057;-84
2022/10/03 08:37:37;;;;;;;1999.90;999.90;;;26.90;99.90;;;;;;5028315;28;20057;-84
2022/10/03 08:40:36;;;;;;;1999.90;999.90;;;27.50;99.90;;;;;;4996055;28;20047;-84
2022/10/03 08:43:37;;;;;;;1999.90;931.83;;;28.20;99.90;;;;;;4995881;28;20056;-84
2022/10/03 08:46:34;;;;;;;1999.90;999.90;;;28.30;99.90;;;;;;4939909;28;20492;-84
2022/10/03 08:49:39;;;;;;;1999.90;999.90;;;28.70;99.90;;;;;;5012247;28;20494;-84
2022/10/03 08:52:23;;;;;;;1308.60;955.97;;;29.50;99.90;;;;;;5028620;28;20046;-84
2022/10/03 08:54:54;;;;;;;1850.72;995.78;;;29.90;99.90;;;;;;5012557;28;20127;-84
2022/10/03 08:57:44;;;;;;;1519.40;872.40;;;30.00;99.90;;;;;;5011641;28;20088;-84
2022/10/03 09:00:15;;;;;;;824.63;765.03;;;30.40;99.90;;;;;;4996066;28;20546;-84
2022/10/03 09:03:05;;;;;;;811.63;753.20;;;29.90;99.90;;;;;;5013277;28;20050;-84
2022/10/03 09:05:46;;;;;;;859.55;795.90;;;29.40;99.90;;;;;;5012706;28;20536;-85
2022/10/03 09:08:42;;;;;;;835.88;775.03;;;29.70;99.90;;;;;;5012758;28;20049;-85
2022/10/03 09:11:11;;;;;;;824.38;765.85;;;30.30;99.90;;;;;;5061649;28;20049;-85
2022/10/03 09:14:13;;;;;;;734.33;684.15;;;30.10;99.90;;;;;;5067456;28;20071;-85
2022/10/03 09:16:44;;;;;;;740.20;690.13;;;30.60;99.90;;;;;;5050998;28;20056;-85
2022/10/03 09:19:48;;;;;;;726.65;676.80;;;30.70;99.90;;;;;;5067873;28;20049;-85
2022/10/03 09:22:51;;;;;;;601.03;561.55;;;31.00;99.90;;;;;;5034933;28;20396;-87
2022/10/03 09:25:45;;;;;;;511.58;478.52;;;29.90;99.90;;;;;;5068097;28;20080;-86
2022/10/03 09:28:49;;;;;;;471.67;442.42;;;29.10;99.90;;;;;;5067718;28;20405;-85
2022/10/03 09:31:21;;;;;;;393.08;369.08;;;30.20;99.90;;;;;;5084750;28;20040;-87
2022/10/03 09:33:55;;;;;;;392.05;369.00;;;29.80;99.90;;;;;;5068473;28;20064;-85
2022/10/03 09:36:52;;;;;;;399.88;375.90;;;30.60;99.90;;;;;;5067838;28;20041;-85
2022/10/03 09:39:42;;;;;;;374.52;352.08;;;31.60;99.90;;;;;;5067987;28;20520;-86
2022/10/03 09:42:46;;;;;;;287.05;270.60;;;32.00;99.90;;;;;;5067922;28;20048;-85
2022/10/03 09:45:56;;;;;;;413.20;388.30;;;31.00;99.90;;;;;;5085031;28;20057;-85
2022/10/03 09:49:10;;;;;;;270.80;255.10;;;30.80;99.90;;;;;;5032727;28;20053;-85
2022/10/03 09:51:51;;;;;;;386.48;363.70;;;28.80;99.90;;;;;;5033795;28;20049;-85
2022/10/03 09:54:42;;;;;;;421.55;395.65;;;28.20;99.90;;;;;;5067444;28;20083;-86
2022/10/03 09:57:50;;;;;;;483.65;453.08;;;27.00;99.90;;;;;;5034482;28;20059;-85
2022/10/03 10:00:21;;;;;;;611.83;571.03;;;26.20;99.90;;;;;;5084888;28;20056;-85
2022/10/03 10:03:24;;;;;;;649.00;605.22;;;25.90;99.90;;;;;;5067708;28;20049;-85
2022/10/03 10:05:50;;;;;;;670.25;625.15;;;25.50;99.90;;;;;;5067760;28;20140;-85
2022/10/03 10:08:44;;;;;;;663.95;619.55;;;25.00;99.90;;;;;;5067734;28;20144;-85
2022/10/03 10:11:34;;;;;;;643.50;600.13;;;24.80;99.90;;;;;;5067672;28;20489;-84
2022/10/03 10:14:19;;;;;;;596.83;556.28;;;24.60;99.90;;;;;;5067859;28;20059;-84
2022/10/03 10:16:53;;;;;;;1999.90;999.90;;;24.70;99.90;;;;;;5067138;28;20130;-85
2022/10/03 10:19:37;;;;;;;1820.75;922.17;;;24.90;99.90;;;;;;5067549;28;20041;-85
2022/10/03 10:22:11;;;;;;;1999.90;999.90;;;25.20;99.90;;;;;;5067833;28;20543;-85
2022/10/03 10:25:00;;;;;;;770.13;708.22;;;25.60;99.90;;;;;;5067648;28;20052;-85
2022/10/03 10:27:45;;;;;;;1986.53;975.75;;;26.20;99.90;;;;;;5067157;28;20045;-85
2022/10/03 10:30:44;;;;;;;1999.90;999.90;;;26.50;99.90;;;;;;5035676;28;20049;-84
2022/10/03 10:33:44;;;;;;;841.25;765.20;;;26.60;99.90;;;;;;5038072;28;20136;-84
2022/10/03 10:36:34;;;;;;;822.65;754.92;;;26.40;99.90;;;;;;5070505;28;20084;-85
2022/10/03 10:39:20;;;;;;;873.03;754.25;;;26.90;99.90;;;;;;5071085;28;20071;-85
2022/10/03 10:42:07;;;;;;;798.50;741.13;;;27.40;99.90;;;;;;5037292;28;20045;-84
2022/10/03 10:45:07;;;;;;;728.03;676.17;;;28.00;99.90;;;;;;5070799;28;20128;-85
2022/10/03 10:47:38;;;;;;;;;;;28.30;99.90;;;;;;5070921;28;20064;-85
2022/10/03 10:50:45;;;;;;;834.38;773.88;;;29.00;99.90;;;;;;5070870;28;20054;-86
2022/10/03 10:53:49;;;;;;;810.70;752.95;;;29.30;99.90;;;;;;5054017;28;20041;-85
2022/10/03 10:56:56;;;;;;;649.50;606.20;;;30.00;99.90;;;;;;5070230;28;20045;-86
2022/10/03 10:59:47;;;;;;;522.03;488.15;;;30.20;99.90;;;;;;5020869;28;20052;-87
2022/10/03 11:02:41;;;;;;;562.47;525.58;;;30.20;99.90;;;;;;5070688;28;20489;-85
2022/10/03 11:05:47;;;;;;;436.77;409.75;;;30.30;99.90;;;;;;5070892;28;20044;-85
2022/10/03 11:08:18;;;;;;;411.50;386.83;;;30.50;99.90;;;;;;5070383;28;20049;-85
2022/10/03 11:10:49;;;;;;;488.35;457.27;;;30.50;99.90;;;;;;5069909;28;20386;-85
2022/10/03 11:13:40;;;;;;;440.00;413.33;;;30.40;99.90;;;;;;5070179;28;20056;-85
2022/10/03 11:16:54;;;;;;;410.50;385.70;;;30.40;99.90;;;;;;5070473;28;20053;-85
2022/10/03 11:19:40;;;;;;;395.25;372.00;;;30.50;99.90;;;;;;5025348;28;20061;-85
2022/10/03 11:22:27;;;;;;;361.35;340.05;;;30.30;99.90;;;;;;5037145;28;20084;-85
2022/10/03 11:25:31;;;;;;;388.20;364.98;;;30.80;99.90;;;;;;5070444;28;20131;-86
2022/10/03 11:28:48;;;;;;;395.77;371.30;;;31.10;99.90;;;;;;5069459;28;20106;-85
2022/10/03 11:31:40;;;;;;;280.27;263.95;;;31.40;99.90;;;;;;5031840;28;20052;-86
2022/10/03 11:34:57;;;;;;;234.13;221.27;;;31.40;99.90;;;;;;5070215;28;20045;-86
2022/10/03 11:38:06;;;;;;;382.50;358.52;;;31.10;99.90;;;;;;5024635;28;20559;-86
2022/10/03 11:41:05;;;;;;;129.48;122.07;;;30.80;99.90;;;;;;5036266;28;20150;-86
2022/10/03 11:44:13;;;;;;;481.35;450.50;;;30.60;99.90;;;;;;5031199;28;20068;-85
2022/10/03 11:46:56;;;;;;;251.10;236.73;;;31.50;99.90;;;;;;5036425;28;20049;-85
2022/10/03 11:49:40;;;;;;;265.80;250.10;;;31.70;99.90;;;;;;5069384;28;20092;-85
2022/10/03 11:52:09;;;;;;;202.70;191.05;;;31.80;99.90;;;;;;5069479;28;20085;-85
2022/10/03 11:54:39;;;;;;;224.02;210.82;;;31.40;99.90;;;;;;5069303;28;20486;-85
2022/10/03 11:57:37;;;;;;;133.68;125.60;;;30.70;99.90;;;;;;5036237;28;20056;-84
2022/10/03 12:00:22;;;;;;;392.33;368.38;;;29.80;99.90;;;;;;5034221;28;20493;-85
2022/10/03 12:02:58;;;;;;;488.02;457.73;;;28.90;99.90;;;;;;5086236;28;20049;-85
2022/10/03 12:05:45;;;;;;;642.28;599.33;;;28.50;99.90;;;;;;5069561;28;20070;-85
2022/10/03 12:11:25;;;;;;;667.58;622.55;;;27.60;99.90;;;;;;5068325;28;20064;-86
2022/10/03 12:14:15;;;;;;;539.80;504.95;;;27.10;99.90;;;;;;5019477;28;20053;-85
2022/10/03 12:17:02;;;;;;;733.33;682.95;;;26.80;99.90;;;;;;5052368;28;20060;-85
2022/10/03 12:19:31;;;;;;;781.00;725.75;;;26.50;99.90;;;;;;5035912;28;20095;-85
2022/10/03 12:22:36;;;;;;;817.80;759.60;;;26.30;99.90;;;;;;5069217;28;20565;-85
2022/10/03 12:25:46;;;;;;;640.83;597.53;;;26.20;99.90;;;;;;5036196;28;20513;-85
2022/10/03 12:28:33;;;;;;;585.53;546.78;;;26.10;99.90;;;;;;5023827;28;20057;-85
2022/10/03 12:31:16;;;;;;;737.58;686.70;;;25.80;99.90;;;;;;5035559;28;20473;-84
2022/10/03 12:33:46;;;;;;;848.80;786.30;;;25.70;99.90;;;;;;5051677;28;20056;-85
2022/10/03 12:36:41;;;;;;;786.83;732.05;;;25.70;99.90;;;;;;5068771;28;20060;-84
2022/10/03 12:39:38;;;;;;;748.40;694.95;;;25.70;99.90;;;;;;5069021;28;20056;-84
2022/10/03 12:42:25;;;;;;;872.17;806.38;;;25.60;99.90;;;;;;5018623;28;20045;-84
2022/10/03 12:45:00;;;;;;;845.67;783.35;;;25.40;99.90;;;;;;5035013;28;20041;-84
2022/10/03 12:47:44;;;;;;;813.20;754.85;;;25.40;99.90;;;;;;5018852;28;20049;-84
2022/10/03 12:50:26;;;;;;;773.42;718.50;;;25.30;99.90;;;;;;5052671;28;20516;-84
2022/10/03 12:53:14;;;;;;;861.92;797.38;;;25.10;99.90;;;;;;5034453;28;20075;-83
2022/10/03 12:56:03;;;;;;;999.67;893.25;;;24.90;99.90;;;;;;5068175;28;20400;-84
2022/10/03 12:58:41;;;;;;;1342.85;960.65;;;24.70;99.90;;;;;;5018556;28;20053;-84
2022/10/03 13:01:27;;;;;;;1587.22;969.17;;;24.50;99.90;;;;;;5068509;28;20188;-83
2022/10/03 13:04:08;;;;;;;1999.90;999.90;;;24.30;99.90;;;;;;5034848;28;20423;-83
2022/10/03 13:06:45;;;;;;;1999.90;999.90;;;24.10;99.90;;;;;;5052492;28;20568;-84
2022/10/03 13:09:49;;;;;;;1999.90;931.17;;;24.00;99.90;;;;;;5067898;28;20106;-83
2022/10/03 13:12:18;;;;;;;1999.90;999.90;;;23.90;99.90;;;;;;5033366;28;20508;-83
2022/10/03 13:15:17;;;;;;;1999.90;999.90;;;23.80;99.90;;;;;;5067910;28;20103;-84
2022/10/03 13:18:21;;;;;;;1999.90;999.90;;;23.80;99.90;;;;;;5027161;28;20060;-84
2022/10/03 13:20:59;;;;;;;1954.15;803.20;;;23.80;99.90;;;;;;4997270;28;20080;-84
2022/10/03 13:23:45;;;;;;;1999.90;999.90;;;23.90;99.90;;;;;;5032306;28;20052;-84
2022/10/03 13:26:25;;;;;;;1999.90;999.90;;;23.90;99.90;;;;;;5052660;28;20169;-83
2022/10/03 13:29:19;;;;;;;1999.90;999.90;;;23.90;99.90;;;;;;5034492;28;20106;-84
2022/10/03 13:32:02;;;;;;;1999.90;999.90;;;23.80;99.90;;;;;;5034409;28;20396;-84
2022/10/03 13:34:35;;;;;;;1999.90;999.90;;;23.70;99.90;;;;;;5068253;28;20374;-84
2022/10/03 13:37:27;;;;;;;1999.90;999.90;;;23.60;99.90;;;;;;5018232;28;20597;-84
2022/10/03 13:40:00;;;;;;;1999.90;999.90;;;23.50;99.90;;;;;;5050349;28;20085;-84
2022/10/03 13:42:44;;;;;;;1999.90;999.90;;;23.50;99.90;;;;;;5067605;28;20092;-84
2022/10/03 13:45:18;;;;;;;1999.90;999.90;;;23.40;99.90;;;;;;5067802;28;20053;-84
2022/10/03 13:47:50;;;;;;;1999.90;999.90;;;23.40;99.90;;;;;;5067611;28;20048;-83
2022/10/03 13:50:39;;;;;;;1999.90;999.90;;;23.40;99.90;;;;;;5068073;28;20491;-84